sensor_id;sensor_type;location;lat;lon;timestamp;P1;durP1;ratioP1;P2;durP2;ratioP2
52318;SDS011;38258;51.148;14.068;2023-05-13T00:00:25;0.30;;;0.30;;
52318;SDS011;38258;51.148;14.068;2023-05-13T00:02:51;0.28;;;0.28;;
52318;SDS011;38258;51.148;14.068;2023-05-13T00:05:18;0.20;;;0.20;;
52318;SDS011;38258;51.148;14.068;2023-05-13T00:07:45;0.30;;;0.30;;
52318;SDS011;38258;51.148;14.068;2023-05-13T00:10:11;0.20;;;0.20;;
52318;SDS011;38258;51.148;14.068;2023-05-13T00:12:41;0.30;;;0.30;;
52318;SDS011;38258;51.148;14.068;2023-05-13T00:15:08;0.30;;;0.30;;
52318;SDS011;38258;51.148;14.068;2023-05-13T00:17:35;0.30;;;0.30;;
52318;SDS011;38258;51.148;14.068;2023-05-13T00:20:02;0.20;;;0.20;;
52318;SDS011;38258;51.148;14.068;2023-05-13T00:22:30;0.28;;;0.28;;
52318;SDS011;38258;51.148;14.068;2023-05-13T00:24:57;0.20;;;0.20;;
52318;SDS011;38258;51.148;14.068;2023-05-13T00:27:23;0.22;;;0.22;;
52318;SDS011;38258;51.148;14.068;2023-05-13T00:29:51;0.50;;;0.50;;
52318;SDS011;38258;51.148;14.068;2023-05-13T00:32:18;1.25;;;1.25;;
52318;SDS011;38258;51.148;14.068;2023-05-13T00:34:45;0.20;;;0.20;;
52318;SDS011;38258;51.148;14.068;2023-05-13T00:37:11;0.25;;;0.25;;
52318;SDS011;38258;51.148;14.068;2023-05-13T00:39:38;0.45;;;0.45;;
52318;SDS011;38258;51.148;14.068;2023-05-13T00:42:05;0.22;;;0.22;;
52318;SDS011;38258;51.148;14.068;2023-05-13T00:44:31;0.50;;;0.50;;
52318;SDS011;38258;51.148;14.068;2023-05-13T00:47:00;1.50;;;1.50;;
52318;SDS011;38258;51.148;14.068;2023-05-13T00:49:27;1.05;;;1.05;;
52318;SDS011;38258;51.148;14.068;2023-05-13T00:51:53;0.30;;;0.30;;
52318;SDS011;38258;51.148;14.068;2023-05-13T00:54:20;0.20;;;0.20;;
52318;SDS011;38258;51.148;14.068;2023-05-13T00:56:47;0.25;;;0.25;;
52318;SDS011;38258;51.148;14.068;2023-05-13T00:59:18;0.20;;;0.20;;
52318;SDS011;38258;51.148;14.068;2023-05-13T01:01:46;0.30;;;0.30;;
52318;SDS011;38258;51.148;14.068;2023-05-13T01:04:26;0.20;;;0.20;;
52318;SDS011;38258;51.148;14.068;2023-05-13T01:07:00;0.30;;;0.30;;
52318;SDS011;38258;51.148;14.068;2023-05-13T01:09:36;0.30;;;0.30;;
52318;SDS011;38258;51.148;14.068;2023-05-13T01:12:12;0.30;;;0.30;;
52318;SDS011;38258;51.148;14.068;2023-05-13T01:14:46;0.67;;;0.63;;
52318;SDS011;38258;51.148;14.068;2023-05-13T01:17:19;3.20;;;2.08;;
52318;SDS011;38258;51.148;14.068;2023-05-13T01:19:53;0.30;;;0.30;;
52318;SDS011;38258;51.148;14.068;2023-05-13T01:22:22;0.75;;;0.75;;
52318;SDS011;38258;51.148;14.068;2023-05-13T01:24:49;0.20;;;0.20;;
52318;SDS011;38258;51.148;14.068;2023-05-13T01:27:17;0.30;;;0.30;;
52318;SDS011;38258;51.148;14.068;2023-05-13T01:29:44;0.30;;;0.30;;
52318;SDS011;38258;51.148;14.068;2023-05-13T01:32:16;0.20;;;0.20;;
52318;SDS011;38258;51.148;14.068;2023-05-13T01:34:44;0.20;;;0.20;;
52318;SDS011;38258;51.148;14.068;2023-05-13T01:37:12;0.30;;;0.30;;
52318;SDS011;38258;51.148;14.068;2023-05-13T01:39:41;0.20;;;0.20;;
52318;SDS011;38258;51.148;14.068;2023-05-13T01:42:11;0.20;;;0.20;;
52318;SDS011;38258;51.148;14.068;2023-05-13T01:44:38;0.30;;;0.30;;
52318;SDS011;38258;51.148;14.068;2023-05-13T01:47:05;0.30;;;0.30;;
52318;SDS011;38258;51.148;14.068;2023-05-13T01:49:32;0.20;;;0.20;;
52318;SDS011;38258;51.148;14.068;2023-05-13T01:51:58;0.82;;;0.82;;
52318;SDS011;38258;51.148;14.068;2023-05-13T01:54:26;0.28;;;0.28;;
52318;SDS011;38258;51.148;14.068;2023-05-13T01:57:00;0.20;;;0.20;;
52318;SDS011;38258;51.148;14.068;2023-05-13T01:59:27;0.30;;;0.30;;
52318;SDS011;38258;51.148;14.068;2023-05-13T02:01:54;0.32;;;0.32;;
52318;SDS011;38258;51.148;14.068;2023-05-13T02:04:23;0.30;;;0.30;;
52318;SDS011;38258;51.148;14.068;2023-05-13T02:06:50;0.30;;;0.30;;
52318;SDS011;38258;51.148;14.068;2023-05-13T02:09:17;0.30;;;0.30;;
52318;SDS011;38258;51.148;14.068;2023-05-13T02:11:44;0.30;;;0.30;;
52318;SDS011;38258;51.148;14.068;2023-05-13T02:14:12;0.38;;;0.38;;
52318;SDS011;38258;51.148;14.068;2023-05-13T02:16:39;0.20;;;0.20;;
52318;SDS011;38258;51.148;14.068;2023-05-13T02:19:05;0.20;;;0.20;;
52318;SDS011;38258;51.148;14.068;2023-05-13T02:21:32;0.30;;;0.30;;
52318;SDS011;38258;51.148;14.068;2023-05-13T02:23:59;0.40;;;0.40;;
52318;SDS011;38258;51.148;14.068;2023-05-13T02:26:27;0.32;;;0.32;;
52318;SDS011;38258;51.148;14.068;2023-05-13T02:28:54;0.82;;;0.82;;
52318;SDS011;38258;51.148;14.068;2023-05-13T02:31:22;0.82;;;0.82;;
52318;SDS011;38258;51.148;14.068;2023-05-13T02:33:49;0.30;;;0.30;;
52318;SDS011;38258;51.148;14.068;2023-05-13T02:36:16;1.00;;;1.00;;
52318;SDS011;38258;51.148;14.068;2023-05-13T02:38:43;0.30;;;0.30;;
52318;SDS011;38258;51.148;14.068;2023-05-13T02:41:13;0.30;;;0.30;;
52318;SDS011;38258;51.148;14.068;2023-05-13T02:43:40;0.20;;;0.20;;
52318;SDS011;38258;51.148;14.068;2023-05-13T02:46:07;0.60;;;0.60;;
52318;SDS011;38258;51.148;14.068;2023-05-13T02:48:35;0.45;;;0.45;;
52318;SDS011;38258;51.148;14.068;2023-05-13T02:51:01;0.30;;;0.30;;
52318;SDS011;38258;51.148;14.068;2023-05-13T02:53:28;0.20;;;0.20;;
52318;SDS011;38258;51.148;14.068;2023-05-13T02:56:00;0.40;;;0.40;;
52318;SDS011;38258;51.148;14.068;2023-05-13T02:58:26;0.30;;;0.30;;
52318;SDS011;38258;51.148;14.068;2023-05-13T03:00:54;0.30;;;0.30;;
52318;SDS011;38258;51.148;14.068;2023-05-13T03:03:23;0.30;;;0.30;;
52318;SDS011;38258;51.148;14.068;2023-05-13T03:05:51;0.30;;;0.30;;
52318;SDS011;38258;51.148;14.068;2023-05-13T03:08:17;0.30;;;0.30;;
52318;SDS011;38258;51.148;14.068;2023-05-13T03:10:44;0.45;;;0.45;;
52318;SDS011;38258;51.148;14.068;2023-05-13T03:13:11;0.30;;;0.30;;
52318;SDS011;38258;51.148;14.068;2023-05-13T03:15:37;0.25;;;0.25;;
52318;SDS011;38258;51.148;14.068;2023-05-13T03:18:04;0.52;;;0.52;;
52318;SDS011;38258;51.148;14.068;2023-05-13T03:20:31;0.30;;;0.30;;
52318;SDS011;38258;51.148;14.068;2023-05-13T03:23:02;0.30;;;0.30;;
52318;SDS011;38258;51.148;14.068;2023-05-13T03:25:31;0.30;;;0.30;;
52318;SDS011;38258;51.148;14.068;2023-05-13T03:27:58;0.30;;;0.30;;
52318;SDS011;38258;51.148;14.068;2023-05-13T03:30:28;0.30;;;0.30;;
52318;SDS011;38258;51.148;14.068;2023-05-13T03:33:01;0.30;;;0.30;;
52318;SDS011;38258;51.148;14.068;2023-05-13T03:35:28;0.30;;;0.30;;
52318;SDS011;38258;51.148;14.068;2023-05-13T03:37:55;0.30;;;0.30;;
52318;SDS011;38258;51.148;14.068;2023-05-13T03:40:24;0.60;;;0.60;;
52318;SDS011;38258;51.148;14.068;2023-05-13T03:42:51;0.30;;;0.30;;
52318;SDS011;38258;51.148;14.068;2023-05-13T03:45:20;0.30;;;0.30;;
52318;SDS011;38258;51.148;14.068;2023-05-13T03:47:49;0.82;;;0.82;;
52318;SDS011;38258;51.148;14.068;2023-05-13T03:50:17;0.30;;;0.30;;
52318;SDS011;38258;51.148;14.068;2023-05-13T03:52:44;0.30;;;0.30;;
52318;SDS011;38258;51.148;14.068;2023-05-13T03:55:11;0.50;;;0.50;;
52318;SDS011;38258;51.148;14.068;2023-05-13T03:57:40;0.20;;;0.20;;
52318;SDS011;38258;51.148;14.068;2023-05-13T04:00:09;0.30;;;0.30;;
52318;SDS011;38258;51.148;14.068;2023-05-13T04:02:40;0.35;;;0.35;;
52318;SDS011;38258;51.148;14.068;2023-05-13T04:05:07;0.40;;;0.40;;
52318;SDS011;38258;51.148;14.068;2023-05-13T04:07:35;0.40;;;0.40;;
52318;SDS011;38258;51.148;14.068;2023-05-13T04:10:01;0.30;;;0.30;;
52318;SDS011;38258;51.148;14.068;2023-05-13T04:12:29;0.22;;;0.22;;
52318;SDS011;38258;51.148;14.068;2023-05-13T04:14:58;0.30;;;0.30;;
52318;SDS011;38258;51.148;14.068;2023-05-13T04:17:26;0.30;;;0.30;;
52318;SDS011;38258;51.148;14.068;2023-05-13T04:19:53;2.42;;;2.22;;
52318;SDS011;38258;51.148;14.068;2023-05-13T04:22:20;0.25;;;0.25;;
52318;SDS011;38258;51.148;14.068;2023-05-13T04:24:47;0.30;;;0.30;;
52318;SDS011;38258;51.148;14.068;2023-05-13T04:27:16;0.30;;;0.30;;
52318;SDS011;38258;51.148;14.068;2023-05-13T04:29:43;0.20;;;0.20;;
52318;SDS011;38258;51.148;14.068;2023-05-13T04:32:12;0.77;;;0.77;;
52318;SDS011;38258;51.148;14.068;2023-05-13T04:34:40;0.30;;;0.30;;
52318;SDS011;38258;51.148;14.068;2023-05-13T04:37:07;0.30;;;0.30;;
52318;SDS011;38258;51.148;14.068;2023-05-13T04:39:34;0.30;;;0.30;;
52318;SDS011;38258;51.148;14.068;2023-05-13T04:42:01;0.30;;;0.30;;
52318;SDS011;38258;51.148;14.068;2023-05-13T04:44:28;0.30;;;0.30;;
52318;SDS011;38258;51.148;14.068;2023-05-13T04:46:55;0.30;;;0.30;;
52318;SDS011;38258;51.148;14.068;2023-05-13T04:49:23;0.30;;;0.30;;
52318;SDS011;38258;51.148;14.068;2023-05-13T04:51:49;0.20;;;0.20;;
52318;SDS011;38258;51.148;14.068;2023-05-13T04:54:17;0.30;;;0.30;;
52318;SDS011;38258;51.148;14.068;2023-05-13T04:56:44;0.20;;;0.20;;
52318;SDS011;38258;51.148;14.068;2023-05-13T04:59:10;0.20;;;0.20;;
52318;SDS011;38258;51.148;14.068;2023-05-13T05:01:39;0.20;;;0.20;;
52318;SDS011;38258;51.148;14.068;2023-05-13T05:04:06;0.50;;;0.50;;
52318;SDS011;38258;51.148;14.068;2023-05-13T05:06:36;0.20;;;0.20;;
52318;SDS011;38258;51.148;14.068;2023-05-13T05:09:03;0.20;;;0.20;;
52318;SDS011;38258;51.148;14.068;2023-05-13T05:11:30;0.30;;;0.30;;
52318;SDS011;38258;51.148;14.068;2023-05-13T05:13:57;0.20;;;0.20;;
52318;SDS011;38258;51.148;14.068;2023-05-13T05:16:23;1.35;;;1.35;;
52318;SDS011;38258;51.148;14.068;2023-05-13T05:18:50;0.30;;;0.30;;
52318;SDS011;38258;51.148;14.068;2023-05-13T05:21:17;0.47;;;0.47;;
52318;SDS011;38258;51.148;14.068;2023-05-13T05:23:45;0.22;;;0.22;;
52318;SDS011;38258;51.148;14.068;2023-05-13T05:26:12;0.20;;;0.20;;
52318;SDS011;38258;51.148;14.068;2023-05-13T05:28:41;0.30;;;0.30;;
52318;SDS011;38258;51.148;14.068;2023-05-13T05:31:08;0.20;;;0.20;;
52318;SDS011;38258;51.148;14.068;2023-05-13T05:33:35;0.20;;;0.20;;
52318;SDS011;38258;51.148;14.068;2023-05-13T05:36:04;1.60;;;1.55;;
52318;SDS011;38258;51.148;14.068;2023-05-13T05:38:32;0.20;;;0.20;;
52318;SDS011;38258;51.148;14.068;2023-05-13T05:41:01;0.20;;;0.20;;
52318;SDS011;38258;51.148;14.068;2023-05-13T05:43:28;0.20;;;0.20;;
52318;SDS011;38258;51.148;14.068;2023-05-13T05:45:55;0.20;;;0.20;;
52318;SDS011;38258;51.148;14.068;2023-05-13T05:48:23;0.20;;;0.20;;
52318;SDS011;38258;51.148;14.068;2023-05-13T05:50:51;0.22;;;0.22;;
52318;SDS011;38258;51.148;14.068;2023-05-13T05:53:26;0.20;;;0.20;;
52318;SDS011;38258;51.148;14.068;2023-05-13T05:55:52;0.20;;;0.20;;
52318;SDS011;38258;51.148;14.068;2023-05-13T05:58:21;0.40;;;0.40;;
52318;SDS011;38258;51.148;14.068;2023-05-13T06:00:51;0.32;;;0.32;;
52318;SDS011;38258;51.148;14.068;2023-05-13T06:03:18;0.20;;;0.20;;
52318;SDS011;38258;51.148;14.068;2023-05-13T06:05:45;0.20;;;0.20;;
52318;SDS011;38258;51.148;14.068;2023-05-13T06:08:12;0.20;;;0.20;;
52318;SDS011;38258;51.148;14.068;2023-05-13T06:10:39;0.28;;;0.28;;
52318;SDS011;38258;51.148;14.068;2023-05-13T06:13:06;0.20;;;0.20;;
52318;SDS011;38258;51.148;14.068;2023-05-13T06:15:34;0.20;;;0.20;;
52318;SDS011;38258;51.148;14.068;2023-05-13T06:18:01;0.20;;;0.20;;
52318;SDS011;38258;51.148;14.068;2023-05-13T06:20:31;0.20;;;0.20;;
52318;SDS011;38258;51.148;14.068;2023-05-13T06:22:58;0.20;;;0.20;;
52318;SDS011;38258;51.148;14.068;2023-05-13T06:25:25;0.73;;;0.40;;
52318;SDS011;38258;51.148;14.068;2023-05-13T06:27:52;6.78;;;1.27;;
52318;SDS011;38258;51.148;14.068;2023-05-13T06:30:19;0.10;;;0.10;;
52318;SDS011;38258;51.148;14.068;2023-05-13T06:32:49;0.75;;;0.75;;
52318;SDS011;38258;51.148;14.068;2023-05-13T06:35:15;0.20;;;0.20;;
52318;SDS011;38258;51.148;14.068;2023-05-13T06:37:42;1.45;;;1.02;;
52318;SDS011;38258;51.148;14.068;2023-05-13T06:40:10;0.30;;;0.30;;
52318;SDS011;38258;51.148;14.068;2023-05-13T06:42:40;0.30;;;0.30;;
52318;SDS011;38258;51.148;14.068;2023-05-13T06:45:33;0.25;;;0.25;;
52318;SDS011;38258;51.148;14.068;2023-05-13T06:48:01;0.20;;;0.20;;
52318;SDS011;38258;51.148;14.068;2023-05-13T06:50:29;0.20;;;0.20;;
52318;SDS011;38258;51.148;14.068;2023-05-13T06:52:55;0.30;;;0.30;;
52318;SDS011;38258;51.148;14.068;2023-05-13T06:55:22;0.10;;;0.10;;
52318;SDS011;38258;51.148;14.068;2023-05-13T06:57:49;0.10;;;0.10;;
52318;SDS011;38258;51.148;14.068;2023-05-13T07:00:17;0.20;;;0.20;;
52318;SDS011;38258;51.148;14.068;2023-05-13T07:02:44;0.20;;;0.20;;
52318;SDS011;38258;51.148;14.068;2023-05-13T07:05:12;0.20;;;0.20;;
52318;SDS011;38258;51.148;14.068;2023-05-13T07:07:39;0.43;;;0.43;;
52318;SDS011;38258;51.148;14.068;2023-05-13T07:10:09;0.68;;;0.68;;
52318;SDS011;38258;51.148;14.068;2023-05-13T07:12:36;0.10;;;0.10;;
52318;SDS011;38258;51.148;14.068;2023-05-13T07:15:03;0.20;;;0.20;;
52318;SDS011;38258;51.148;14.068;2023-05-13T07:17:30;0.22;;;0.22;;
52318;SDS011;38258;51.148;14.068;2023-05-13T07:19:57;0.20;;;0.20;;
52318;SDS011;38258;51.148;14.068;2023-05-13T07:22:25;0.10;;;0.10;;
52318;SDS011;38258;51.148;14.068;2023-05-13T07:24:52;0.20;;;0.20;;
52318;SDS011;38258;51.148;14.068;2023-05-13T07:27:23;0.17;;;0.17;;
52318;SDS011;38258;51.148;14.068;2023-05-13T07:29:50;0.20;;;0.20;;
52318;SDS011;38258;51.148;14.068;2023-05-13T07:32:16;0.10;;;0.10;;
52318;SDS011;38258;51.148;14.068;2023-05-13T07:34:43;0.20;;;0.20;;
52318;SDS011;38258;51.148;14.068;2023-05-13T07:37:10;0.10;;;0.10;;
52318;SDS011;38258;51.148;14.068;2023-05-13T07:39:38;0.13;;;0.13;;
52318;SDS011;38258;51.148;14.068;2023-05-13T07:42:05;0.10;;;0.10;;
52318;SDS011;38258;51.148;14.068;2023-05-13T07:44:32;0.10;;;0.10;;
52318;SDS011;38258;51.148;14.068;2023-05-13T07:46:58;0.38;;;0.38;;
52318;SDS011;38258;51.148;14.068;2023-05-13T07:49:25;0.30;;;0.30;;
52318;SDS011;38258;51.148;14.068;2023-05-13T07:51:52;0.30;;;0.30;;
52318;SDS011;38258;51.148;14.068;2023-05-13T07:54:18;0.10;;;0.10;;
52318;SDS011;38258;51.148;14.068;2023-05-13T07:56:46;0.10;;;0.10;;
52318;SDS011;38258;51.148;14.068;2023-05-13T07:59:13;0.50;;;0.50;;
52318;SDS011;38258;51.148;14.068;2023-05-13T08:01:40;0.65;;;0.65;;
52318;SDS011;38258;51.148;14.068;2023-05-13T08:04:07;0.10;;;0.10;;
52318;SDS011;38258;51.148;14.068;2023-05-13T08:06:34;0.10;;;0.10;;
52318;SDS011;38258;51.148;14.068;2023-05-13T08:09:01;0.17;;;0.17;;
52318;SDS011;38258;51.148;14.068;2023-05-13T08:11:28;0.15;;;0.15;;
52318;SDS011;38258;51.148;14.068;2023-05-13T08:13:56;0.10;;;0.10;;
52318;SDS011;38258;51.148;14.068;2023-05-13T08:16:37;0.30;;;0.30;;
52318;SDS011;38258;51.148;14.068;2023-05-13T08:19:12;0.50;;;0.50;;
52318;SDS011;38258;51.148;14.068;2023-05-13T08:21:39;0.20;;;0.20;;
52318;SDS011;38258;51.148;14.068;2023-05-13T08:24:06;0.10;;;0.10;;
52318;SDS011;38258;51.148;14.068;2023-05-13T08:26:33;0.80;;;0.80;;
52318;SDS011;38258;51.148;14.068;2023-05-13T08:29:01;0.13;;;0.13;;
52318;SDS011;38258;51.148;14.068;2023-05-13T08:31:28;0.10;;;0.10;;
52318;SDS011;38258;51.148;14.068;2023-05-13T08:33:56;0.10;;;0.10;;
52318;SDS011;38258;51.148;14.068;2023-05-13T08:36:23;0.55;;;0.55;;
52318;SDS011;38258;51.148;14.068;2023-05-13T08:38:51;0.10;;;0.10;;
52318;SDS011;38258;51.148;14.068;2023-05-13T08:41:18;0.10;;;0.10;;
52318;SDS011;38258;51.148;14.068;2023-05-13T08:49:14;6.13;;;4.65;;
52318;SDS011;38258;51.148;14.068;2023-05-13T08:51:41;5.20;;;4.50;;
52318;SDS011;38258;51.148;14.068;2023-05-13T08:54:08;7.35;;;5.13;;
52318;SDS011;38258;51.148;14.068;2023-05-13T08:56:35;8.30;;;5.75;;
52318;SDS011;38258;51.148;14.068;2023-05-13T08:59:02;6.80;;;5.40;;
52318;SDS011;38258;51.148;14.068;2023-05-13T09:01:29;7.90;;;5.30;;
52318;SDS011;38258;51.148;14.068;2023-05-13T09:03:58;8.07;;;5.07;;
52318;SDS011;38258;51.148;14.068;2023-05-13T09:06:28;7.75;;;4.65;;
52318;SDS011;38258;51.148;14.068;2023-05-13T09:08:55;13.95;;;5.70;;
52318;SDS011;38258;51.148;14.068;2023-05-13T09:11:22;7.20;;;5.10;;
52318;SDS011;38258;51.148;14.068;2023-05-13T09:13:56;7.80;;;5.47;;
52318;SDS011;38258;51.148;14.068;2023-05-13T09:16:23;7.85;;;5.28;;
52318;SDS011;38258;51.148;14.068;2023-05-13T09:18:54;7.30;;;4.78;;
52318;SDS011;38258;51.148;14.068;2023-05-13T09:21:22;6.75;;;4.60;;
52318;SDS011;38258;51.148;14.068;2023-05-13T09:23:55;8.40;;;5.65;;
52318;SDS011;38258;51.148;14.068;2023-05-13T09:26:30;7.07;;;4.70;;
52318;SDS011;38258;51.148;14.068;2023-05-13T09:29:13;7.43;;;4.82;;
52318;SDS011;38258;51.148;14.068;2023-05-13T09:31:42;9.70;;;5.13;;
52318;SDS011;38258;51.148;14.068;2023-05-13T09:34:09;9.25;;;5.18;;
52318;SDS011;38258;51.148;14.068;2023-05-13T09:36:35;8.18;;;5.20;;
52318;SDS011;38258;51.148;14.068;2023-05-13T09:39:03;7.32;;;5.80;;
52318;SDS011;38258;51.148;14.068;2023-05-13T09:41:31;6.22;;;5.22;;
52318;SDS011;38258;51.148;14.068;2023-05-13T09:43:59;6.35;;;5.03;;
52318;SDS011;38258;51.148;14.068;2023-05-13T09:46:27;18.33;;;4.63;;
52318;SDS011;38258;51.148;14.068;2023-05-13T09:48:56;8.45;;;4.78;;
52318;SDS011;38258;51.148;14.068;2023-05-13T09:51:26;6.90;;;5.38;;
52318;SDS011;38258;51.148;14.068;2023-05-13T09:53:55;18.02;;;4.70;;
52318;SDS011;38258;51.148;14.068;2023-05-13T09:56:30;6.70;;;5.25;;
52318;SDS011;38258;51.148;14.068;2023-05-13T09:58:58;8.38;;;5.18;;
52318;SDS011;38258;51.148;14.068;2023-05-13T10:01:25;5.75;;;4.40;;
52318;SDS011;38258;51.148;14.068;2023-05-13T10:03:52;12.15;;;3.85;;
52318;SDS011;38258;51.148;14.068;2023-05-13T10:06:20;5.72;;;4.30;;
52318;SDS011;38258;51.148;14.068;2023-05-13T10:08:49;8.25;;;4.95;;
52318;SDS011;38258;51.148;14.068;2023-05-13T10:11:17;5.93;;;5.03;;
52318;SDS011;38258;51.148;14.068;2023-05-13T10:13:49;7.00;;;4.90;;
52318;SDS011;38258;51.148;14.068;2023-05-13T10:16:21;5.63;;;5.03;;
52318;SDS011;38258;51.148;14.068;2023-05-13T10:18:48;7.15;;;4.85;;
52318;SDS011;38258;51.148;14.068;2023-05-13T10:21:20;7.22;;;5.22;;
52318;SDS011;38258;51.148;14.068;2023-05-13T10:23:50;8.65;;;5.78;;
52318;SDS011;38258;51.148;14.068;2023-05-13T10:26:18;6.65;;;5.38;;
52318;SDS011;38258;51.148;14.068;2023-05-13T10:28:49;8.25;;;5.18;;
52318;SDS011;38258;51.148;14.068;2023-05-13T10:31:16;7.30;;;4.95;;
52318;SDS011;38258;51.148;14.068;2023-05-13T10:33:43;5.90;;;4.68;;
52318;SDS011;38258;51.148;14.068;2023-05-13T10:42:07;8.07;;;5.05;;
52318;SDS011;38258;51.148;14.068;2023-05-13T10:44:55;6.07;;;5.10;;
52318;SDS011;38258;51.148;14.068;2023-05-13T10:47:23;6.68;;;4.82;;
52318;SDS011;38258;51.148;14.068;2023-05-13T10:49:54;6.90;;;5.00;;
52318;SDS011;38258;51.148;14.068;2023-05-13T10:52:22;6.72;;;4.78;;
52318;SDS011;38258;51.148;14.068;2023-05-13T10:54:58;7.13;;;5.22;;
52318;SDS011;38258;51.148;14.068;2023-05-13T10:57:27;7.63;;;4.60;;
52318;SDS011;38258;51.148;14.068;2023-05-13T11:00:12;4.90;;;4.40;;
52318;SDS011;38258;51.148;14.068;2023-05-13T11:02:43;6.15;;;4.50;;
52318;SDS011;38258;51.148;14.068;2023-05-13T11:05:18;5.90;;;3.97;;
52318;SDS011;38258;51.148;14.068;2023-05-13T11:07:53;6.28;;;4.65;;
52318;SDS011;38258;51.148;14.068;2023-05-13T11:10:24;4.45;;;3.35;;
52318;SDS011;38258;51.148;14.068;2023-05-13T11:16:02;4.25;;;3.10;;
52318;SDS011;38258;51.148;14.068;2023-05-13T11:18:31;4.03;;;3.20;;
52318;SDS011;38258;51.148;14.068;2023-05-13T11:21:01;4.07;;;2.85;;
52318;SDS011;38258;51.148;14.068;2023-05-13T11:23:31;4.97;;;3.63;;
52318;SDS011;38258;51.148;14.068;2023-05-13T11:26:41;7.57;;;4.78;;
52318;SDS011;38258;51.148;14.068;2023-05-13T11:29:09;8.82;;;4.80;;
52318;SDS011;38258;51.148;14.068;2023-05-13T11:31:44;4.20;;;3.40;;
52318;SDS011;38258;51.148;14.068;2023-05-13T11:34:13;6.97;;;4.25;;
52318;SDS011;38258;51.148;14.068;2023-05-13T11:36:42;5.53;;;3.55;;
52318;SDS011;38258;51.148;14.068;2023-05-13T11:39:13;4.95;;;3.33;;
52318;SDS011;38258;51.148;14.068;2023-05-13T11:41:42;5.05;;;3.60;;
52318;SDS011;38258;51.148;14.068;2023-05-13T11:44:11;6.38;;;3.60;;
52318;SDS011;38258;51.148;14.068;2023-05-13T11:46:50;5.10;;;4.13;;
52318;SDS011;38258;51.148;14.068;2023-05-13T11:49:31;7.22;;;4.18;;
52318;SDS011;38258;51.148;14.068;2023-05-13T11:51:59;5.13;;;3.92;;
52318;SDS011;38258;51.148;14.068;2023-05-13T11:54:26;5.85;;;4.00;;
52318;SDS011;38258;51.148;14.068;2023-05-13T11:56:53;5.13;;;4.25;;
52318;SDS011;38258;51.148;14.068;2023-05-13T11:59:20;5.90;;;3.90;;
52318;SDS011;38258;51.148;14.068;2023-05-13T12:01:58;5.22;;;4.38;;
52318;SDS011;38258;51.148;14.068;2023-05-13T12:04:28;5.82;;;4.72;;
52318;SDS011;38258;51.148;14.068;2023-05-13T12:06:55;5.20;;;4.40;;
52318;SDS011;38258;51.148;14.068;2023-05-13T12:09:22;5.35;;;4.50;;
52318;SDS011;38258;51.148;14.068;2023-05-13T12:11:50;5.25;;;3.92;;
52318;SDS011;38258;51.148;14.068;2023-05-13T12:14:18;5.88;;;4.15;;
52318;SDS011;38258;51.148;14.068;2023-05-13T12:16:45;6.22;;;4.15;;
52318;SDS011;38258;51.148;14.068;2023-05-13T12:19:14;4.80;;;3.95;;
52318;SDS011;38258;51.148;14.068;2023-05-13T12:21:40;5.35;;;3.83;;
52318;SDS011;38258;51.148;14.068;2023-05-13T12:24:17;5.45;;;4.05;;
52318;SDS011;38258;51.148;14.068;2023-05-13T12:26:44;7.38;;;4.20;;
52318;SDS011;38258;51.148;14.068;2023-05-13T12:29:11;7.55;;;4.40;;
52318;SDS011;38258;51.148;14.068;2023-05-13T12:31:39;8.40;;;4.13;;
52318;SDS011;38258;51.148;14.068;2023-05-13T12:34:06;4.97;;;4.20;;
52318;SDS011;38258;51.148;14.068;2023-05-13T12:36:36;8.10;;;4.28;;
52318;SDS011;38258;51.148;14.068;2023-05-13T12:39:04;5.85;;;4.20;;
52318;SDS011;38258;51.148;14.068;2023-05-13T12:41:33;7.65;;;4.20;;
52318;SDS011;38258;51.148;14.068;2023-05-13T12:44:01;5.32;;;4.38;;
52318;SDS011;38258;51.148;14.068;2023-05-13T12:46:29;9.43;;;5.18;;
52318;SDS011;38258;51.148;14.068;2023-05-13T12:48:57;5.72;;;4.60;;
52318;SDS011;38258;51.148;14.068;2023-05-13T12:51:25;5.95;;;4.82;;
52318;SDS011;38258;51.148;14.068;2023-05-13T12:53:53;5.50;;;4.45;;
52318;SDS011;38258;51.148;14.068;2023-05-13T12:56:20;5.45;;;4.47;;
52318;SDS011;38258;51.148;14.068;2023-05-13T12:58:47;6.05;;;4.55;;
52318;SDS011;38258;51.148;14.068;2023-05-13T13:01:15;5.10;;;4.60;;
52318;SDS011;38258;51.148;14.068;2023-05-13T13:03:42;5.82;;;4.70;;
52318;SDS011;38258;51.148;14.068;2023-05-13T13:06:09;6.47;;;4.70;;
52318;SDS011;38258;51.148;14.068;2023-05-13T13:08:36;7.07;;;4.55;;
52318;SDS011;38258;51.148;14.068;2023-05-13T13:11:05;6.00;;;4.40;;
52318;SDS011;38258;51.148;14.068;2023-05-13T13:13:31;6.70;;;4.40;;
52318;SDS011;38258;51.148;14.068;2023-05-13T13:15:58;4.57;;;4.03;;
52318;SDS011;38258;51.148;14.068;2023-05-13T13:18:26;5.53;;;4.63;;
52318;SDS011;38258;51.148;14.068;2023-05-13T13:20:53;4.60;;;3.83;;
52318;SDS011;38258;51.148;14.068;2023-05-13T13:23:20;5.70;;;4.28;;
52318;SDS011;38258;51.148;14.068;2023-05-13T13:25:46;4.55;;;4.00;;
52318;SDS011;38258;51.148;14.068;2023-05-13T13:28:15;5.57;;;4.57;;
52318;SDS011;38258;51.148;14.068;2023-05-13T13:30:41;4.88;;;4.10;;
52318;SDS011;38258;51.148;14.068;2023-05-13T13:33:11;7.53;;;4.38;;
52318;SDS011;38258;51.148;14.068;2023-05-13T13:35:39;7.18;;;4.88;;
52318;SDS011;38258;51.148;14.068;2023-05-13T13:38:05;5.75;;;4.53;;
52318;SDS011;38258;51.148;14.068;2023-05-13T13:40:32;7.22;;;4.93;;
52318;SDS011;38258;51.148;14.068;2023-05-13T13:43:00;5.30;;;4.80;;
52318;SDS011;38258;51.148;14.068;2023-05-13T13:45:28;6.47;;;4.68;;
52318;SDS011;38258;51.148;14.068;2023-05-13T13:47:55;6.38;;;4.65;;
52318;SDS011;38258;51.148;14.068;2023-05-13T13:50:22;6.80;;;4.60;;
52318;SDS011;38258;51.148;14.068;2023-05-13T13:52:49;6.60;;;4.75;;
52318;SDS011;38258;51.148;14.068;2023-05-13T13:55:17;6.97;;;4.97;;
52318;SDS011;38258;51.148;14.068;2023-05-13T13:57:43;5.43;;;4.28;;
52318;SDS011;38258;51.148;14.068;2023-05-13T14:00:10;6.65;;;4.75;;
52318;SDS011;38258;51.148;14.068;2023-05-13T14:02:40;5.60;;;4.55;;
52318;SDS011;38258;51.148;14.068;2023-05-13T14:05:07;6.78;;;4.40;;
52318;SDS011;38258;51.148;14.068;2023-05-13T14:07:34;6.57;;;5.00;;
52318;SDS011;38258;51.148;14.068;2023-05-13T14:10:01;6.97;;;5.15;;
52318;SDS011;38258;51.148;14.068;2023-05-13T14:12:27;7.18;;;4.80;;
52318;SDS011;38258;51.148;14.068;2023-05-13T14:14:54;5.93;;;4.97;;
52318;SDS011;38258;51.148;14.068;2023-05-13T14:17:20;8.10;;;5.55;;
52318;SDS011;38258;51.148;14.068;2023-05-13T14:19:48;6.68;;;5.43;;
52318;SDS011;38258;51.148;14.068;2023-05-13T14:22:18;6.97;;;5.15;;
52318;SDS011;38258;51.148;14.068;2023-05-13T14:24:45;8.30;;;6.00;;
52318;SDS011;38258;51.148;14.068;2023-05-13T14:27:12;7.03;;;5.57;;
52318;SDS011;38258;51.148;14.068;2023-05-13T14:29:39;7.15;;;5.63;;
52318;SDS011;38258;51.148;14.068;2023-05-13T14:32:06;7.05;;;5.20;;
52318;SDS011;38258;51.148;14.068;2023-05-13T14:34:33;5.88;;;4.60;;
52318;SDS011;38258;51.148;14.068;2023-05-13T14:37:00;7.43;;;5.55;;
52318;SDS011;38258;51.148;14.068;2023-05-13T14:39:27;6.63;;;5.68;;
52318;SDS011;38258;51.148;14.068;2023-05-13T14:41:54;7.15;;;5.95;;
52318;SDS011;38258;51.148;14.068;2023-05-13T14:44:20;5.75;;;4.65;;
52318;SDS011;38258;51.148;14.068;2023-05-13T14:46:47;4.78;;;4.18;;
52318;SDS011;38258;51.148;14.068;2023-05-13T14:49:14;5.85;;;4.90;;
52318;SDS011;38258;51.148;14.068;2023-05-13T14:51:40;6.10;;;4.10;;
52318;SDS011;38258;51.148;14.068;2023-05-13T14:54:08;5.30;;;3.90;;